createdAt,value
2019-05-17T00:00:08.546Z,67.49
2019-05-17T00:02:37.630Z,67.81
2019-05-17T00:05:08.068Z,67.34
2019-05-17T00:07:37.131Z,66.31
2019-05-17T00:10:07.058Z,67.69
2019-05-17T00:12:36.781Z,68.25
2019-05-17T00:15:07.317Z,67.79
2019-05-17T00:17:37.708Z,67.31
2019-05-17T00:20:08.190Z,66.54
2019-05-17T00:22:36.893Z,68.11
2019-05-17T00:25:07.821Z,67.86
2019-05-17T00:27:37.345Z,67.46
2019-05-17T00:30:09.843Z,67.23
2019-05-17T00:32:38.521Z,67.26
2019-05-17T00:35:07.720Z,68.10
2019-05-17T00:37:37.349Z,68.20
2019-05-17T00:40:08.069Z,68.54
2019-05-17T00:42:37.312Z,68.14
2019-05-17T00:45:09.847Z,68.83
2019-05-17T00:47:38.466Z,67.87
2019-05-17T00:50:07.758Z,67.87
2019-05-17T00:52:36.992Z,68.25
2019-05-17T00:55:07.564Z,68.26
2019-05-17T00:57:36.967Z,67.02
2019-05-17T01:00:08.635Z,68.20
2019-05-17T01:02:37.218Z,67.80
2019-05-17T01:05:09.482Z,67.44
2019-05-17T01:07:38.032Z,68.35
2019-05-17T01:10:08.132Z,68.14
2019-05-17T01:12:36.873Z,68.58
2019-05-17T01:15:10.603Z,68.00
2019-05-17T01:17:39.085Z,67.02
2019-05-17T01:20:08.829Z,67.92
2019-05-17T01:22:37.511Z,68.47
2019-05-17T01:25:09.841Z,67.93
2019-05-17T01:27:38.476Z,69.10
2019-05-17T01:30:08.097Z,69.02
2019-05-17T01:32:37.455Z,67.95
2019-05-17T01:35:07.405Z,68.77
2019-05-17T01:37:37.093Z,69.45
2019-05-17T01:40:07.049Z,68.80
2019-05-17T01:42:37.471Z,69.72
2019-05-17T01:45:07.771Z,69.86
2019-05-17T01:47:36.801Z,70.09
2019-05-17T01:50:07.176Z,69.95
2019-05-17T01:52:36.951Z,69.95
2019-05-17T01:55:07.641Z,69.81
2019-05-17T01:57:37.031Z,69.78
2019-05-17T02:00:08.821Z,69.21
2019-05-17T02:02:41.815Z,69.46
2019-05-17T02:05:10.736Z,69.12
2019-05-17T02:07:39.379Z,68.65
2019-05-17T02:10:08.606Z,69.67
2019-05-17T02:12:37.371Z,69.17
2019-05-17T02:15:09.792Z,68.68
2019-05-17T02:17:38.655Z,68.25
2019-05-17T02:20:08.947Z,70.08
2019-05-17T02:22:37.546Z,70.02
2019-05-17T02:25:11.306Z,69.93
2019-05-17T02:27:44.613Z,69.63
2019-05-17T02:30:14.030Z,68.79
2019-05-17T02:32:43.773Z,69.58
2019-05-17T02:35:14.335Z,69.28
2019-05-17T02:37:43.621Z,68.07
2019-05-17T02:40:14.707Z,69.96
2019-05-17T02:42:44.231Z,69.96
2019-05-17T02:45:13.981Z,70.07
2019-05-17T02:47:43.886Z,68.81
2019-05-17T02:50:13.542Z,69.20
2019-05-17T02:52:43.768Z,69.64
2019-05-17T02:55:13.817Z,69.67
2019-05-17T02:57:43.619Z,69.78
2019-05-17T03:00:13.687Z,70.37
2019-05-17T03:02:43.381Z,69.92
2019-05-17T03:05:13.188Z,69.20
2019-05-17T03:07:43.963Z,69.20
2019-05-17T03:10:22.646Z,69.00
2019-05-17T03:12:44.380Z,68.22
2019-05-17T03:15:14.107Z,68.97
2019-05-17T03:17:43.764Z,68.49
2019-05-17T03:20:13.784Z,68.28
2019-05-17T03:22:44.198Z,69.26
2019-05-17T03:25:13.862Z,68.76
2019-05-17T03:27:43.570Z,68.84
2019-05-17T03:30:17.452Z,69.43
2019-05-17T03:32:55.489Z,69.41
2019-05-17T03:35:25.736Z,69.29
2019-05-17T03:37:53.208Z,68.05
2019-05-17T03:40:46.356Z,68.53
2019-05-17T03:42:53.864Z,69.44
2019-05-17T03:45:22.843Z,69.00
2019-05-17T03:47:54.238Z,69.70
2019-05-17T03:50:22.877Z,68.14
2019-05-17T03:52:53.586Z,68.56
2019-05-17T03:55:23.491Z,68.53
2019-05-17T03:57:53.290Z,68.39
2019-05-17T04:00:23.519Z,68.22
2019-05-17T04:02:53.678Z,68.33
2019-05-17T04:05:22.903Z,69.41
2019-05-17T04:07:53.706Z,69.68
2019-05-17T04:10:22.798Z,69.00
2019-05-17T04:12:53.012Z,68.65
2019-05-17T04:15:23.968Z,68.93
2019-05-17T04:17:53.787Z,68.46
2019-05-17T04:20:22.571Z,68.69
2019-05-17T04:22:52.741Z,69.43
2019-05-17T04:25:23.414Z,71.31
2019-05-17T04:27:53.592Z,69.62
2019-05-17T04:30:23.314Z,68.29
2019-05-17T04:32:52.793Z,66.82
2019-05-17T04:35:23.505Z,67.80
2019-05-17T04:37:53.184Z,67.06
2019-05-17T04:40:23.153Z,68.20
2019-05-17T04:42:52.671Z,68.44
2019-05-17T04:45:23.165Z,68.38
2019-05-17T04:47:52.897Z,68.60
2019-05-17T04:50:23.120Z,67.71
2019-05-17T04:52:53.771Z,67.15
2019-05-17T04:55:23.045Z,67.17
2019-05-17T04:57:53.067Z,67.47
2019-05-17T05:00:22.401Z,67.51
2019-05-17T05:02:52.695Z,71.96
2019-05-17T05:05:22.752Z,68.53
2019-05-17T05:07:53.424Z,67.56
2019-05-17T05:10:22.645Z,67.16
2019-05-17T05:12:52.414Z,67.62
2019-05-17T05:15:32.264Z,67.33
2019-05-17T05:18:02.383Z,66.91
2019-05-17T05:20:32.578Z,67.08
2019-05-17T05:23:02.576Z,67.58
2019-05-17T05:25:32.313Z,67.56
2019-05-17T05:28:02.499Z,67.75
2019-05-17T05:30:32.060Z,66.97
2019-05-17T05:33:02.005Z,66.84
2019-05-17T05:35:31.786Z,66.86
2019-05-17T05:38:02.189Z,66.82
2019-05-17T05:40:32.047Z,66.64
2019-05-17T05:43:02.337Z,66.77
2019-05-17T05:45:32.054Z,65.75
2019-05-17T05:48:01.880Z,64.74
2019-05-17T05:50:32.397Z,65.25
2019-05-17T05:53:01.981Z,65.11
2019-05-17T05:55:32.227Z,65.64
2019-05-17T05:58:02.928Z,65.34
2019-05-17T06:00:33.045Z,65.06
2019-05-17T06:03:04.178Z,66.07
2019-05-17T06:05:32.487Z,65.05
2019-05-17T06:08:02.905Z,65.19
2019-05-17T06:10:32.540Z,65.44
2019-05-17T06:13:03.317Z,64.66
2019-05-17T06:15:32.137Z,64.86
2019-05-17T06:18:02.934Z,64.32
2019-05-17T06:20:32.359Z,63.59
2019-05-17T06:23:02.542Z,64.66
2019-05-17T06:25:34.117Z,64.29
2019-05-17T06:28:01.749Z,63.85
2019-05-17T06:30:32.376Z,63.56
2019-05-17T06:33:02.429Z,62.89
2019-05-17T06:35:32.533Z,62.63
2019-05-17T06:38:01.902Z,62.52
2019-05-17T06:40:32.294Z,62.36
2019-05-17T06:43:04.240Z,62.79
2019-05-17T06:45:32.609Z,62.22
2019-05-17T06:48:02.557Z,61.63
2019-05-17T06:50:32.744Z,61.22
2019-05-17T06:53:03.161Z,61.93
2019-05-17T06:55:31.726Z,61.21
2019-05-17T06:58:01.737Z,61.83
2019-05-17T07:00:30.515Z,61.58
2019-05-17T07:03:00.683Z,60.75
2019-05-17T07:05:34.036Z,61.65
2019-05-17T07:08:02.672Z,61.03
2019-05-17T07:10:31.277Z,61.42
2019-05-17T07:13:01.894Z,61.56
2019-05-17T07:15:43.322Z,61.56
2019-05-17T07:18:00.469Z,62.05
2019-05-17T07:20:30.062Z,62.30
2019-05-17T07:23:00.758Z,61.68
2019-05-17T07:25:30.364Z,61.00
2019-05-17T07:28:00.459Z,61.62
2019-05-17T07:30:30.607Z,61.64
2019-05-17T07:33:00.888Z,60.86
2019-05-17T07:35:30.160Z,60.53
2019-05-17T07:37:59.568Z,59.96
2019-05-17T07:40:30.265Z,59.75
2019-05-17T07:43:07.871Z,60.31
2019-05-17T07:45:30.569Z,59.84
2019-05-17T07:48:00.137Z,59.77
2019-05-17T07:50:29.335Z,60.09
2019-05-17T07:53:00.492Z,59.78
2019-05-17T07:55:30.165Z,59.76
2019-05-17T07:58:00.235Z,59.25
2019-05-17T08:00:30.577Z,58.72
2019-05-17T08:02:59.979Z,58.89
2019-05-17T08:05:29.614Z,58.39
2019-05-17T08:08:00.146Z,57.76
2019-05-17T08:10:29.820Z,59.04
2019-05-17T08:12:59.889Z,58.00
2019-05-17T08:15:30.455Z,57.87
2019-05-17T08:18:01.674Z,58.31
2019-05-17T08:20:29.945Z,58.54
2019-05-17T08:22:59.558Z,57.65
2019-05-17T08:25:30.369Z,57.33
2019-05-17T08:27:59.460Z,56.78
2019-05-17T08:30:30.789Z,57.34
2019-05-17T08:33:00.880Z,55.94
2019-05-17T08:35:30.405Z,55.82
2019-05-17T08:38:00.519Z,55.99
2019-05-17T08:40:30.547Z,55.80
2019-05-17T08:43:00.096Z,55.43
2019-05-17T08:45:29.624Z,55.59
2019-05-17T08:48:00.199Z,55.14
2019-05-17T08:50:29.419Z,54.01
2019-05-17T08:52:59.942Z,54.11
2019-05-17T08:55:29.892Z,53.80
2019-05-17T08:58:01.070Z,54.24
2019-05-17T09:00:31.441Z,53.90
2019-05-17T09:03:00.221Z,53.18
2019-05-17T09:05:30.248Z,54.41
2019-05-17T09:08:00.069Z,54.69
2019-05-17T09:10:29.992Z,54.37
2019-05-17T09:12:59.713Z,55.04
2019-05-17T09:15:29.628Z,54.73
2019-05-17T09:18:00.141Z,54.09
2019-05-17T09:20:29.836Z,55.18
2019-05-17T09:23:00.060Z,55.49
2019-05-17T09:25:30.203Z,55.49
2019-05-17T09:28:00.731Z,55.88
2019-05-17T09:30:31.366Z,56.14
2019-05-17T09:33:00.271Z,62.13
2019-05-17T09:35:30.065Z,57.11
2019-05-17T09:38:00.521Z,55.58
2019-05-17T09:40:29.304Z,55.20
2019-05-17T09:43:00.375Z,55.47
2019-05-17T09:45:30.623Z,55.47
2019-05-17T09:48:00.741Z,55.74
2019-05-17T09:50:29.508Z,55.77
2019-05-17T09:53:00.043Z,55.48
2019-05-17T09:55:30.110Z,56.80
2019-05-17T09:58:00.264Z,56.47
2019-05-17T10:00:29.668Z,56.38
2019-05-17T10:03:00.045Z,55.82
2019-05-17T10:05:31.139Z,56.10
2019-05-17T10:08:00.045Z,56.27
2019-05-17T10:10:28.629Z,55.78
2019-05-17T10:12:57.289Z,56.73
2019-05-17T10:15:26.130Z,55.66
2019-05-17T10:17:54.765Z,56.20
2019-05-17T10:20:23.279Z,55.67
2019-05-17T10:22:51.873Z,54.36
2019-05-17T10:25:20.477Z,55.00
2019-05-17T10:27:49.797Z,54.92
2019-05-17T10:30:20.758Z,54.62
2019-05-17T10:32:50.534Z,55.87
2019-05-17T10:35:20.336Z,55.80
2019-05-17T10:37:50.569Z,55.30
2019-05-17T10:40:21.012Z,55.55
2019-05-17T10:42:49.991Z,55.70
2019-05-17T10:45:19.856Z,55.63
2019-05-17T10:47:50.347Z,55.86
2019-05-17T10:50:20.605Z,55.86
2019-05-17T10:52:49.053Z,55.70
2019-05-17T10:55:19.817Z,55.25
2019-05-17T10:57:49.991Z,55.25
2019-05-17T11:00:19.722Z,55.44
2019-05-17T11:02:50.288Z,56.03
2019-05-17T11:05:20.107Z,55.71
2019-05-17T11:07:50.513Z,56.71
2019-05-17T11:10:19.583Z,57.40
2019-05-17T11:12:48.074Z,56.55
2019-05-17T11:15:16.615Z,56.36
2019-05-17T11:17:45.182Z,56.60
2019-05-17T11:20:14.157Z,58.16
2019-05-17T11:22:42.694Z,57.43
2019-05-17T11:25:11.295Z,56.75
2019-05-17T11:27:39.982Z,56.88
2019-05-17T11:30:08.964Z,56.91
2019-05-17T11:32:37.539Z,57.48
2019-05-17T11:35:06.956Z,57.42
2019-05-17T11:37:35.501Z,57.11
2019-05-17T11:40:08.690Z,57.10
2019-05-17T11:42:37.318Z,57.48
2019-05-17T11:45:06.298Z,56.75
2019-05-17T11:47:34.953Z,55.81
2019-05-17T11:50:04.774Z,57.00
2019-05-17T11:52:33.413Z,57.12
2019-05-17T11:55:02.147Z,57.53
2019-05-17T11:57:30.599Z,57.23
2019-05-17T11:59:59.178Z,57.44
2019-05-17T12:02:27.703Z,58.38
2019-05-17T12:04:56.321Z,58.59
2019-05-17T12:07:24.919Z,58.55
2019-05-17T12:09:53.540Z,59.32
2019-05-17T12:12:22.123Z,58.84
2019-05-17T12:14:50.739Z,59.55
2019-05-17T12:17:19.228Z,59.78
2019-05-17T12:19:47.845Z,59.51
2019-05-17T12:22:16.400Z,58.97
2019-05-17T12:24:45.007Z,59.50
2019-05-17T12:27:13.535Z,59.75
2019-05-17T12:29:42.141Z,60.12
2019-05-17T12:32:16.607Z,61.03
2019-05-17T12:34:41.151Z,60.60
2019-05-17T12:37:09.807Z,59.86
2019-05-17T12:39:38.416Z,60.72
2019-05-17T12:42:07.126Z,61.93
2019-05-17T12:44:37.261Z,61.13
2019-05-17T12:47:06.112Z,61.30
2019-05-17T12:49:34.656Z,61.19
2019-05-17T12:52:04.255Z,60.52
2019-05-17T12:54:32.781Z,60.04
2019-05-17T12:57:04.579Z,60.38
2019-05-17T12:59:31.746Z,59.68
2019-05-17T13:02:00.388Z,59.23
2019-05-17T13:04:29.014Z,60.76
2019-05-17T13:06:57.609Z,60.23
2019-05-17T13:09:26.121Z,60.85
2019-05-17T13:11:54.663Z,60.08
2019-05-17T13:14:23.206Z,59.76
2019-05-17T13:16:51.853Z,59.49
2019-05-17T13:19:20.454Z,59.42
2019-05-17T13:21:49.039Z,58.90
2019-05-17T13:24:17.695Z,60.57
2019-05-17T13:26:46.322Z,60.96
2019-05-17T13:29:14.773Z,61.39
2019-05-17T13:31:43.384Z,60.61
2019-05-17T13:34:12.065Z,61.10
2019-05-17T13:36:40.633Z,62.20
2019-05-17T13:39:09.266Z,62.00
2019-05-17T13:41:37.907Z,62.55
2019-05-17T13:44:06.517Z,63.08
2019-05-17T13:46:35.038Z,63.69
2019-05-17T13:49:03.671Z,64.20
2019-05-17T13:51:32.175Z,64.38
2019-05-17T13:54:00.765Z,63.81
2019-05-17T13:56:29.445Z,63.66
2019-05-17T13:58:58.113Z,64.17
2019-05-17T14:01:26.735Z,65.38
2019-05-17T14:03:55.717Z,66.48
2019-05-17T14:06:24.275Z,65.79
2019-05-17T14:08:52.874Z,66.43
2019-05-17T14:11:21.490Z,64.79
2019-05-17T14:13:50.092Z,66.00
2019-05-17T14:16:18.711Z,65.22
2019-05-17T14:18:47.369Z,65.43
2019-05-17T14:21:15.981Z,65.31
2019-05-17T14:23:45.012Z,63.74
2019-05-17T14:26:13.466Z,65.09
2019-05-17T14:28:42.142Z,63.82
2019-05-17T14:31:10.564Z,66.10
2019-05-17T14:33:39.207Z,65.64
2019-05-17T14:36:07.649Z,66.82
2019-05-17T14:38:36.206Z,67.41
2019-05-17T14:41:08.257Z,65.88
2019-05-17T14:43:35.972Z,65.96
2019-05-17T14:46:05.505Z,66.07
2019-05-17T14:48:34.110Z,66.07
2019-05-17T14:51:02.661Z,65.66
2019-05-17T14:53:31.185Z,66.61
2019-05-17T14:55:59.729Z,67.41
2019-05-17T14:58:28.285Z,67.19
2019-05-17T15:00:56.905Z,66.78
2019-05-17T15:03:25.592Z,66.41
2019-05-17T15:05:54.212Z,66.06
2019-05-17T15:08:22.812Z,65.49
2019-05-17T15:10:51.451Z,65.06
2019-05-17T15:13:20.034Z,65.70
2019-05-17T15:15:48.609Z,66.97
2019-05-17T15:18:17.236Z,66.33
2019-05-17T15:20:45.812Z,65.93
2019-05-17T15:23:14.458Z,66.25
2019-05-17T15:25:43.027Z,66.88
2019-05-17T15:28:11.704Z,67.88
2019-05-17T15:30:40.640Z,68.32
2019-05-17T15:33:09.195Z,68.19
2019-05-17T15:35:37.696Z,68.38
2019-05-17T15:38:06.288Z,67.81
2019-05-17T15:40:35.023Z,68.47
2019-05-17T15:43:03.693Z,67.62
2019-05-17T15:45:32.257Z,67.66
2019-05-17T15:48:00.807Z,68.41
2019-05-17T15:50:29.418Z,67.96
2019-05-17T15:52:58.182Z,67.13
2019-05-17T15:55:26.883Z,66.46
2019-05-17T15:57:55.417Z,66.50
2019-05-17T16:00:24.069Z,67.22
2019-05-17T16:02:52.662Z,66.71
2019-05-17T16:05:21.162Z,67.42
2019-05-17T16:07:49.798Z,67.08
2019-05-17T16:10:18.673Z,67.22
2019-05-17T16:13:00.894Z,67.26
2019-05-17T16:15:17.554Z,67.75
2019-05-17T16:17:46.194Z,66.97
2019-05-17T16:20:16.896Z,66.88
2019-05-17T16:22:45.317Z,66.50
2019-05-17T16:25:14.250Z,67.25
2019-05-17T16:27:42.878Z,66.91
2019-05-17T16:30:11.880Z,66.22
2019-05-17T16:32:40.550Z,66.70
2019-05-17T16:35:09.297Z,66.71
2019-05-17T16:37:37.856Z,66.81
2019-05-17T16:40:07.340Z,66.79
2019-05-17T16:42:36.967Z,66.11
2019-05-17T16:45:07.370Z,65.88
2019-05-17T16:47:35.998Z,66.23
2019-05-17T16:50:06.691Z,67.20
2019-05-17T16:52:35.271Z,68.43
2019-05-17T16:55:05.389Z,68.63
2019-05-17T16:57:34.013Z,68.33
2019-05-17T17:00:03.004Z,67.79
2019-05-17T17:02:31.628Z,67.77
2019-05-17T17:05:00.226Z,67.28
2019-05-17T17:07:28.827Z,67.65
2019-05-17T17:09:57.440Z,67.91
2019-05-17T17:12:25.970Z,68.37
2019-05-17T17:14:54.577Z,68.26
2019-05-17T17:17:23.236Z,67.96
2019-05-17T17:19:51.841Z,68.21
2019-05-17T17:22:20.486Z,69.01
2019-05-17T17:24:49.101Z,69.94
2019-05-17T17:27:17.697Z,69.31
2019-05-17T17:29:46.330Z,70.20
2019-05-17T17:32:21.541Z,69.91
2019-05-17T17:34:45.263Z,70.42
2019-05-17T17:37:13.812Z,71.06
2019-05-17T17:39:42.407Z,71.17
2019-05-17T17:42:10.974Z,71.21
2019-05-17T17:44:39.617Z,70.41
2019-05-17T17:47:08.211Z,70.16
2019-05-17T17:49:36.818Z,70.21
2019-05-17T17:52:05.452Z,70.33
2019-05-17T17:54:34.188Z,71.51
2019-05-17T17:57:02.729Z,71.54
2019-05-17T17:59:31.360Z,72.33
2019-05-17T18:01:59.993Z,71.77
2019-05-17T18:04:28.549Z,71.87
2019-05-17T18:06:57.158Z,71.05
2019-05-17T18:09:25.792Z,71.35
2019-05-17T18:11:54.458Z,70.77
2019-05-17T18:14:23.056Z,70.70
2019-05-17T18:16:51.631Z,71.35
2019-05-17T18:19:20.449Z,71.32
2019-05-17T18:21:49.041Z,71.90
2019-05-17T18:24:17.714Z,72.41
2019-05-17T18:26:46.309Z,72.26
2019-05-17T18:29:14.929Z,72.22
2019-05-17T18:31:43.641Z,72.23
2019-05-17T18:34:12.297Z,71.67
2019-05-17T18:36:40.903Z,71.89
2019-05-17T18:39:09.672Z,72.23
2019-05-17T18:41:38.648Z,72.03
2019-05-17T18:44:07.264Z,71.61
2019-05-17T18:46:35.933Z,71.62
2019-05-17T18:49:04.589Z,71.45
2019-05-17T18:51:33.101Z,71.57
2019-05-17T18:54:02.391Z,72.20
2019-05-17T18:56:31.132Z,72.05
2019-05-17T18:58:59.782Z,71.52
2019-05-17T19:01:28.425Z,71.94
2019-05-17T19:03:57.060Z,71.61
2019-05-17T19:06:25.727Z,72.02
2019-05-17T19:08:54.306Z,72.62
2019-05-17T19:11:22.953Z,71.15
2019-05-17T19:13:51.561Z,72.09
2019-05-17T19:16:20.064Z,72.83
2019-05-17T19:18:48.596Z,73.03
2019-05-17T19:21:17.227Z,71.97
2019-05-17T19:23:45.797Z,72.26
2019-05-17T19:26:14.430Z,72.48
2019-05-17T19:28:42.889Z,72.89
2019-05-17T19:31:11.517Z,72.87
2019-05-17T19:33:40.206Z,73.17
2019-05-17T19:36:09.296Z,73.23
2019-05-17T19:38:37.930Z,74.14
2019-05-17T19:41:06.538Z,74.08
2019-05-17T19:43:35.162Z,73.40
2019-05-17T19:46:03.757Z,72.86
2019-05-17T19:48:32.387Z,72.39
2019-05-17T19:51:00.950Z,72.26
2019-05-17T19:53:29.434Z,72.24
2019-05-17T19:55:58.037Z,72.98
2019-05-17T19:58:26.561Z,73.65
2019-05-17T20:00:55.177Z,72.36
2019-05-17T20:03:23.820Z,72.87
2019-05-17T20:05:52.534Z,73.26
2019-05-17T20:08:21.153Z,73.42
2019-05-17T20:10:51.796Z,72.33
2019-05-17T20:13:20.038Z,72.67
2019-05-17T20:15:48.496Z,72.48
2019-05-17T20:18:17.106Z,72.85
2019-05-17T20:20:45.743Z,72.40
2019-05-17T20:23:14.296Z,73.04
2019-05-17T20:25:42.880Z,72.89
2019-05-17T20:28:11.555Z,72.47
2019-05-17T20:30:40.090Z,72.65
2019-05-17T20:33:08.671Z,73.05
2019-05-17T20:35:37.191Z,73.16
2019-05-17T20:38:05.832Z,73.55
2019-05-17T20:40:34.394Z,73.09
2019-05-17T20:43:02.972Z,72.76
2019-05-17T20:45:33.568Z,72.93
2019-05-17T20:48:01.954Z,73.09
2019-05-17T20:50:30.498Z,72.83
2019-05-17T20:52:59.186Z,73.43
2019-05-17T20:55:27.716Z,72.88
2019-05-17T20:57:56.412Z,73.17
2019-05-17T21:00:25.245Z,73.40
2019-05-17T21:02:53.847Z,74.18
2019-05-17T21:05:22.475Z,74.80
2019-05-17T21:07:51.180Z,73.07
2019-05-17T21:10:19.817Z,72.65
2019-05-17T21:12:48.401Z,73.39
2019-05-17T21:15:17.123Z,73.98
2019-05-17T21:17:45.789Z,73.11
2019-05-17T21:20:14.713Z,73.54
2019-05-17T21:22:43.213Z,72.22
2019-05-17T21:25:12.146Z,72.36
2019-05-17T21:27:40.781Z,72.56
2019-05-17T21:30:09.771Z,72.75
2019-05-17T21:32:38.304Z,73.00
2019-05-17T21:35:07.546Z,72.68
2019-05-17T21:37:36.189Z,72.41
2019-05-17T21:40:09.176Z,72.16
2019-05-17T21:42:37.735Z,72.43
2019-05-17T21:45:06.980Z,72.50
2019-05-17T21:47:35.551Z,72.90
2019-05-17T21:50:04.466Z,72.84
2019-05-17T21:52:33.136Z,72.96
2019-05-17T21:55:01.787Z,73.65
2019-05-17T21:57:30.437Z,73.93
2019-05-17T21:59:59.133Z,73.27
2019-05-17T22:02:28.035Z,72.34
2019-05-17T22:04:56.602Z,73.05
2019-05-17T22:07:26.092Z,72.86
2019-05-17T22:09:54.698Z,72.24
2019-05-17T22:12:23.195Z,72.18
2019-05-17T22:14:51.789Z,72.59
2019-05-17T22:17:20.355Z,72.54
2019-05-17T22:19:49.004Z,72.64
2019-05-17T22:22:17.633Z,72.62
2019-05-17T22:24:46.190Z,72.19
2019-05-17T22:27:14.743Z,72.59
2019-05-17T22:29:43.250Z,73.20
2019-05-17T22:32:11.897Z,73.14
2019-05-17T22:34:41.410Z,72.84
2019-05-17T22:37:10.035Z,72.91
2019-05-17T22:39:38.545Z,73.34
2019-05-17T22:42:07.178Z,73.47
2019-05-17T22:44:35.677Z,73.28
2019-05-17T22:47:04.316Z,72.74
2019-05-17T22:49:32.874Z,73.50
2019-05-17T22:52:01.396Z,72.42
2019-05-17T22:54:29.895Z,72.76
2019-05-17T22:56:58.492Z,73.07
2019-05-17T22:59:27.110Z,73.43
2019-05-17T23:01:55.725Z,73.36
2019-05-17T23:04:24.345Z,73.03
2019-05-17T23:06:52.860Z,73.55
2019-05-17T23:09:21.401Z,73.17
2019-05-17T23:11:49.921Z,73.55
2019-05-17T23:14:18.406Z,73.87
2019-05-17T23:16:51.659Z,73.59
2019-05-17T23:19:17.311Z,73.68
2019-05-17T23:21:45.873Z,72.85
2019-05-17T23:24:14.469Z,73.12
2019-05-17T23:26:42.958Z,73.02
2019-05-17T23:29:12.255Z,73.22
2019-05-17T23:31:40.773Z,73.46
2019-05-17T23:34:09.321Z,73.18
2019-05-17T23:36:37.886Z,73.49
2019-05-17T23:39:07.290Z,73.66
2019-05-17T23:41:35.812Z,73.46
2019-05-17T23:44:04.736Z,72.58
2019-05-17T23:46:33.330Z,71.87
2019-05-17T23:49:01.899Z,72.34
2019-05-17T23:51:30.470Z,72.56
2019-05-17T23:53:59.052Z,72.76
2019-05-17T23:56:27.788Z,73.13
2019-05-17T23:58:56.286Z,72.85
